createdAt,value
2018-12-04T00:00:18.146Z,930.2
2018-12-04T00:01:18.430Z,930.2
2018-12-04T00:02:18.308Z,929.7
2018-12-04T00:03:18.198Z,930.3
2018-12-04T00:04:18.102Z,930.3
2018-12-04T00:05:17.984Z,930.2
2018-12-04T00:06:17.876Z,930.4
2018-12-04T00:07:17.767Z,930.4
2018-12-04T00:08:25.224Z,930.5
2018-12-04T00:09:25.128Z,930.5
2018-12-04T00:10:25.012Z,930.6
2018-12-04T00:11:25.302Z,930.6
2018-12-04T00:12:25.195Z,930.6
2018-12-04T00:13:25.072Z,930.5
2018-12-04T00:14:24.946Z,930.6
2018-12-04T00:15:24.848Z,930.7
2018-12-04T00:16:24.718Z,930.7
2018-12-04T00:17:24.576Z,930.6
2018-12-04T00:18:24.454Z,930.5
2018-12-04T00:19:24.314Z,930.5
2018-12-04T00:20:24.204Z,930.5
2018-12-04T00:21:24.480Z,930.4
2018-12-04T00:22:24.353Z,930.5
2018-12-04T00:23:24.240Z,930.7
2018-12-04T00:24:24.116Z,930.6
2018-12-04T00:25:24.022Z,930.4
2018-12-04T00:26:23.898Z,930.3
2018-12-04T00:27:23.773Z,930.5
2018-12-04T00:28:23.668Z,930.5
2018-12-04T00:29:23.542Z,930.5
2018-12-04T00:30:23.428Z,930.5
2018-12-04T00:31:23.767Z,930.6
2018-12-04T00:32:23.657Z,930.7
2018-12-04T00:33:26.186Z,930.6
2018-12-04T00:34:26.054Z,930.6
2018-12-04T00:35:25.921Z,930.6
2018-12-04T00:36:25.820Z,930.7
2018-12-04T00:37:25.697Z,930.6
2018-12-04T00:38:25.587Z,930.6
2018-12-04T00:39:25.481Z,930.7
2018-12-04T00:40:25.356Z,930.7
2018-12-04T00:41:25.659Z,930.8
2018-12-04T00:42:25.525Z,930.7
2018-12-04T00:43:25.404Z,930.7
2018-12-04T00:44:25.277Z,930.7
2018-12-04T00:45:25.178Z,930.7
2018-12-04T00:46:25.047Z,930.6
2018-12-04T00:47:24.943Z,930.7
2018-12-04T00:48:24.834Z,930.8
2018-12-04T00:49:24.715Z,930.7
2018-12-04T00:50:24.601Z,930.7
2018-12-04T00:51:24.887Z,930.8
2018-12-04T00:52:24.776Z,930.7
2018-12-04T00:53:24.629Z,930.8
2018-12-04T00:54:24.496Z,929.7
2018-12-04T00:55:24.355Z,930.8
2018-12-04T00:56:24.233Z,930.7
2018-12-04T00:57:24.134Z,930.8
2018-12-04T00:58:24.059Z,930.9
2018-12-04T00:59:23.955Z,930.8
2018-12-04T01:00:23.838Z,930.8
2018-12-04T01:01:24.155Z,930.9
2018-12-04T01:02:24.018Z,930.7
2018-12-04T01:03:23.935Z,930.7
2018-12-04T01:04:23.815Z,930.9
2018-12-04T01:05:23.691Z,930.8
2018-12-04T01:06:23.634Z,930.8
2018-12-04T01:07:23.532Z,930.9
2018-12-04T01:08:23.407Z,930.8
2018-12-04T01:09:23.310Z,931
2018-12-04T01:10:23.172Z,931
2018-12-04T01:11:23.452Z,931
2018-12-04T01:12:23.382Z,931.1
2018-12-04T01:13:23.245Z,931.1
2018-12-04T01:14:23.123Z,931.1
2018-12-04T01:15:22.967Z,931.1
2018-12-04T01:16:22.822Z,931
2018-12-04T01:17:22.686Z,930.9
2018-12-04T01:18:22.563Z,931
2018-12-04T01:19:22.446Z,931
2018-12-04T01:20:22.330Z,931
2018-12-04T01:21:22.640Z,931
2018-12-04T01:22:22.526Z,931
2018-12-04T01:23:22.390Z,931.2
2018-12-04T01:24:22.264Z,931.2
2018-12-04T01:25:22.167Z,931.1
2018-12-04T01:26:22.048Z,931.2
2018-12-04T01:27:21.936Z,931.2
2018-12-04T01:28:21.826Z,931.2
2018-12-04T01:29:21.725Z,931.2
2018-12-04T01:30:21.605Z,931.2
2018-12-04T01:31:21.898Z,931.2
2018-12-04T01:32:21.769Z,931.1
2018-12-04T01:33:21.658Z,931.2
2018-12-04T01:34:21.540Z,931.3
2018-12-04T01:35:21.421Z,931.2
2018-12-04T01:36:21.323Z,931.2
2018-12-04T01:37:21.186Z,931.2
2018-12-04T01:38:21.065Z,931.2
2018-12-04T01:39:20.926Z,931.2
2018-12-04T01:40:20.836Z,931.2
2018-12-04T01:41:21.120Z,931.2
2018-12-04T01:42:21.012Z,931.2
2018-12-04T01:43:20.900Z,931.3
2018-12-04T01:44:20.783Z,931.3
2018-12-04T01:45:20.662Z,931.2
2018-12-04T01:46:20.540Z,931.2
2018-12-04T01:47:20.432Z,931.3
2018-12-04T01:48:20.326Z,931.3
2018-12-04T01:49:20.202Z,931.2
2018-12-04T01:50:20.082Z,931.2
2018-12-04T01:51:20.380Z,931.2
2018-12-04T01:52:20.265Z,931.1
2018-12-04T01:53:20.168Z,931.1
2018-12-04T01:54:20.046Z,931.1
2018-12-04T01:55:19.926Z,931.2
2018-12-04T01:56:19.802Z,931.2
2018-12-04T01:57:19.674Z,931.3
2018-12-04T01:58:19.569Z,931.2
2018-12-04T01:59:19.422Z,931.3
2018-12-04T02:00:19.288Z,931.2
2018-12-04T02:01:19.567Z,931.3
2018-12-04T02:02:19.440Z,931
2018-12-04T02:03:19.326Z,931.2
2018-12-04T02:04:19.226Z,931.2
2018-12-04T02:05:19.106Z,931.3
2018-12-04T02:06:18.999Z,931.3
2018-12-04T02:07:18.908Z,931.4
2018-12-04T02:08:18.788Z,931.3
2018-12-04T02:09:18.694Z,931.3
2018-12-04T02:10:18.563Z,931.2
2018-12-04T02:11:18.864Z,931.1
2018-12-04T02:12:18.735Z,931.3
2018-12-04T02:13:18.624Z,931.3
2018-12-04T02:14:18.506Z,931.3
2018-12-04T02:15:18.401Z,931.4
2018-12-04T02:16:18.274Z,931.3
2018-12-04T02:17:18.146Z,931.4
2018-12-04T02:18:18.041Z,931.4
2018-12-04T02:19:17.910Z,931.2
2018-12-04T02:20:17.788Z,931.3
2018-12-04T02:21:18.070Z,931.5
2018-12-04T02:22:17.978Z,931.4
2018-12-04T02:23:17.856Z,931.4
2018-12-04T02:24:17.762Z,931.4
2018-12-04T02:25:17.652Z,931.4
2018-12-04T02:26:17.558Z,931.4
2018-12-04T02:27:17.433Z,931.3
2018-12-04T02:28:17.309Z,931.5
2018-12-04T02:29:17.201Z,931.5
2018-12-04T02:30:17.085Z,931.6
2018-12-04T02:31:17.388Z,931.5
2018-12-04T02:32:17.289Z,931.6
2018-12-04T02:33:17.226Z,931.6
2018-12-04T02:34:17.102Z,931.6
2018-12-04T02:35:16.980Z,931.4
2018-12-04T02:36:16.912Z,931.6
2018-12-04T02:37:16.806Z,931.7
2018-12-04T02:38:16.673Z,931.7
2018-12-04T02:39:16.552Z,931.7
2018-12-04T02:40:16.431Z,931.7
2018-12-04T02:41:16.729Z,931.7
2018-12-04T02:42:16.629Z,930.9
2018-12-04T02:43:16.508Z,931.6
2018-12-04T02:44:16.400Z,931.7
2018-12-04T02:45:16.321Z,931.7
2018-12-04T02:46:16.274Z,931.8
2018-12-04T02:47:16.152Z,931.7
2018-12-04T02:48:16.127Z,931.8
2018-12-04T02:49:16.029Z,931.8
2018-12-04T02:50:15.917Z,931.8
2018-12-04T02:51:16.213Z,931.7
2018-12-04T02:52:16.112Z,931.8
2018-12-04T02:53:16.055Z,931.9
2018-12-04T02:54:15.961Z,931.8
2018-12-04T02:55:15.844Z,931.8
2018-12-04T02:56:15.724Z,931.8
2018-12-04T02:57:15.602Z,931.9
2018-12-04T02:58:15.526Z,931.9
2018-12-04T02:59:15.432Z,931.9
2018-12-04T03:00:15.311Z,931.9
2018-12-04T03:01:15.591Z,931.9
2018-12-04T03:02:15.484Z,931.9
2018-12-04T03:03:15.361Z,931.9
2018-12-04T03:04:15.239Z,931.8
2018-12-04T03:05:15.149Z,931.9
2018-12-04T03:06:15.051Z,931.9
2018-12-04T03:07:14.946Z,931.9
2018-12-04T03:08:14.842Z,931.8
2018-12-04T03:09:14.742Z,931.9
2018-12-04T03:10:14.666Z,930.8
2018-12-04T03:11:14.990Z,931.9
2018-12-04T03:12:14.873Z,931.7
2018-12-04T03:13:14.745Z,931.9
2018-12-04T03:14:14.639Z,931.8
2018-12-04T03:15:14.547Z,931.9
2018-12-04T03:16:14.445Z,931.9
2018-12-04T03:17:14.367Z,932
2018-12-04T03:18:14.284Z,931.8
2018-12-04T03:19:14.176Z,931.9
2018-12-04T03:20:14.086Z,932
2018-12-04T03:21:14.496Z,931.9
2018-12-04T03:22:14.383Z,932
2018-12-04T03:23:14.288Z,932
2018-12-04T03:24:14.162Z,931.9
2018-12-04T03:25:14.060Z,932
2018-12-04T03:26:13.942Z,931.9
2018-12-04T03:27:13.854Z,932
2018-12-04T03:28:13.760Z,932
2018-12-04T03:29:13.643Z,932.2
2018-12-04T03:30:13.711Z,932.1
2018-12-04T03:31:14.057Z,932.1
2018-12-04T03:32:14.013Z,932.1
2018-12-04T03:33:13.980Z,932
2018-12-04T03:34:13.863Z,932
2018-12-04T03:35:13.764Z,932.1
2018-12-04T03:36:13.674Z,932.1
2018-12-04T03:37:13.551Z,931.9
2018-12-04T03:38:13.452Z,932
2018-12-04T03:39:13.334Z,932.1
2018-12-04T03:40:13.275Z,932.1
2018-12-04T03:41:13.589Z,932.2
2018-12-04T03:42:13.510Z,932.2
2018-12-04T03:43:13.409Z,932.1
2018-12-04T03:44:13.317Z,932.2
2018-12-04T03:45:13.196Z,932.1
2018-12-04T03:46:13.117Z,932
2018-12-04T03:47:13.018Z,932.2
2018-12-04T03:48:12.920Z,932.2
2018-12-04T03:49:12.833Z,932.3
2018-12-04T03:50:12.718Z,932.3
2018-12-04T03:51:13.041Z,932.2
2018-12-04T03:52:12.928Z,932.4
2018-12-04T03:53:12.808Z,932.3
2018-12-04T03:54:12.700Z,932.2
2018-12-04T03:55:12.631Z,932.2
2018-12-04T03:56:12.537Z,932.2
2018-12-04T03:57:12.463Z,932.3
2018-12-04T03:58:12.384Z,932.3
2018-12-04T03:59:12.267Z,932.3
2018-12-04T04:00:12.182Z,932.3
2018-12-04T04:01:12.493Z,932.3
2018-12-04T04:02:12.381Z,932.4
2018-12-04T04:03:12.272Z,932.4
2018-12-04T04:04:12.175Z,932.4
2018-12-04T04:05:12.062Z,932.2
2018-12-04T04:06:11.968Z,932.3
2018-12-04T04:07:11.862Z,932.2
2018-12-04T04:08:11.772Z,932.2
2018-12-04T04:09:11.675Z,932.3
2018-12-04T04:10:11.569Z,932.3
2018-12-04T04:11:11.930Z,932.4
2018-12-04T04:12:11.855Z,932.5
2018-12-04T04:13:11.748Z,932.5
2018-12-04T04:14:11.729Z,932.4
2018-12-04T04:15:11.620Z,932.4
2018-12-04T04:16:11.519Z,932.4
2018-12-04T04:17:11.411Z,932.4
2018-12-04T04:18:14.288Z,932.4
2018-12-04T04:19:14.181Z,932.5
2018-12-04T04:20:14.058Z,932.5
2018-12-04T04:21:14.387Z,932.6
2018-12-04T04:22:14.276Z,932.6
2018-12-04T04:23:14.185Z,932.5
2018-12-04T04:24:14.071Z,932.5
2018-12-04T04:25:13.973Z,932.5
2018-12-04T04:26:13.878Z,932.5
2018-12-04T04:27:13.785Z,932.5
2018-12-04T04:28:13.665Z,932.6
2018-12-04T04:29:13.545Z,932.4
2018-12-04T04:30:13.438Z,932.5
2018-12-04T04:31:13.713Z,932.5
2018-12-04T04:32:13.637Z,932.5
2018-12-04T04:33:13.521Z,932.5
2018-12-04T04:34:13.404Z,932.6
2018-12-04T04:35:13.351Z,932.6
2018-12-04T04:36:13.267Z,932.7
2018-12-04T04:37:13.160Z,932.6
2018-12-04T04:38:13.085Z,932.7
2018-12-04T04:39:12.982Z,932.7
2018-12-04T04:40:12.902Z,932.6
2018-12-04T04:41:13.214Z,932.6
2018-12-04T04:42:13.120Z,932.5
2018-12-04T04:43:13.040Z,932.6
2018-12-04T04:44:12.953Z,932
2018-12-04T04:45:12.844Z,932.5
2018-12-04T04:46:12.763Z,932.6
2018-12-04T04:47:12.667Z,932.1
2018-12-04T04:48:12.555Z,932.7
2018-12-04T04:49:12.487Z,932.2
2018-12-04T04:50:12.376Z,932.8
2018-12-04T04:51:12.693Z,931.3
2018-12-04T04:52:12.599Z,932.8
2018-12-04T04:53:12.490Z,932.8
2018-12-04T04:54:12.410Z,932.9
2018-12-04T04:55:12.317Z,932.9
2018-12-04T04:56:12.229Z,932.9
2018-12-04T04:57:12.104Z,932.8
2018-12-04T04:58:11.996Z,933
2018-12-04T04:59:11.900Z,932.9
2018-12-04T05:00:11.829Z,932.9
2018-12-04T05:01:12.165Z,933
2018-12-04T05:02:12.136Z,932.9
2018-12-04T05:03:12.043Z,932.7
2018-12-04T05:04:11.958Z,932.5
2018-12-04T05:05:11.867Z,932.9
2018-12-04T05:06:11.766Z,932.6
2018-12-04T05:07:11.674Z,932.9
2018-12-04T05:08:11.584Z,933
2018-12-04T05:09:11.510Z,933
2018-12-04T05:10:11.472Z,932.8
2018-12-04T05:11:11.774Z,933.1
2018-12-04T05:12:11.667Z,933.1
2018-12-04T05:13:11.553Z,933
2018-12-04T05:14:11.443Z,933
2018-12-04T05:15:11.368Z,933
2018-12-04T05:16:11.274Z,933.1
2018-12-04T05:17:11.213Z,933
2018-12-04T05:18:11.127Z,932.9
2018-12-04T05:19:11.009Z,933.1
2018-12-04T05:20:10.917Z,933.1
2018-12-04T05:21:11.259Z,933
2018-12-04T05:22:11.148Z,932.9
2018-12-04T05:23:11.029Z,933.1
2018-12-04T05:24:10.940Z,933.1
2018-12-04T05:25:10.874Z,933.1
2018-12-04T05:26:10.775Z,933.2
2018-12-04T05:27:10.699Z,933.3
2018-12-04T05:28:10.580Z,933.2
2018-12-04T05:29:10.474Z,933
2018-12-04T05:30:10.359Z,933.2
2018-12-04T05:31:10.678Z,933.3
2018-12-04T05:32:10.577Z,933.2
2018-12-04T05:33:10.497Z,933.2
2018-12-04T05:34:10.378Z,933.2
2018-12-04T05:35:10.266Z,933.3
2018-12-04T05:36:10.155Z,933.2
2018-12-04T05:37:10.044Z,933.2
2018-12-04T05:38:09.977Z,933.3
2018-12-04T05:39:09.869Z,933.3
2018-12-04T05:40:09.765Z,933.3
2018-12-04T05:41:10.088Z,933.2
2018-12-04T05:42:10.048Z,933
2018-12-04T05:43:09.943Z,933.2
2018-12-04T05:44:09.865Z,933.1
2018-12-04T05:45:09.754Z,933.2
2018-12-04T05:46:09.643Z,933.2
2018-12-04T05:47:09.524Z,933.2
2018-12-04T05:48:09.426Z,933.3
2018-12-04T05:49:09.340Z,933.3
2018-12-04T05:50:09.217Z,933.3
2018-12-04T05:51:09.556Z,933.3
2018-12-04T05:52:09.434Z,933.3
2018-12-04T05:53:09.316Z,933.3
2018-12-04T05:54:09.204Z,933.2
2018-12-04T05:55:09.133Z,933.3
2018-12-04T05:56:09.037Z,933.3
2018-12-04T05:57:08.986Z,933.4
2018-12-04T05:58:08.888Z,933.4
2018-12-04T05:59:08.777Z,933.4
2018-12-04T06:00:08.685Z,933.5
2018-12-04T06:01:09.004Z,933.4
2018-12-04T06:02:08.934Z,933.5
2018-12-04T06:03:08.811Z,933.4
2018-12-04T06:04:08.691Z,933.4
2018-12-04T06:05:08.592Z,933.5
2018-12-04T06:06:08.486Z,933
2018-12-04T06:07:08.363Z,933.5
2018-12-04T06:08:08.244Z,933.4
2018-12-04T06:09:08.124Z,933.5
2018-12-04T06:10:08.018Z,933.5
2018-12-04T06:11:08.339Z,933.5
2018-12-04T06:12:08.232Z,933.6
2018-12-04T06:13:08.121Z,933.5
2018-12-04T06:14:08.016Z,933.4
2018-12-04T06:15:07.912Z,933.5
2018-12-04T06:16:07.816Z,933.4
2018-12-04T06:17:07.714Z,933.5
2018-12-04T06:18:07.622Z,933.6
2018-12-04T06:19:07.514Z,933.5
2018-12-04T06:20:07.416Z,933.6
2018-12-04T06:21:07.750Z,933.4
2018-12-04T06:22:07.663Z,933.5
2018-12-04T06:23:07.545Z,933.5
2018-12-04T06:24:07.456Z,933.5
2018-12-04T06:25:07.388Z,933.5
2018-12-04T06:26:07.305Z,933.5
2018-12-04T06:27:07.213Z,933.5
2018-12-04T06:28:07.090Z,933.6
2018-12-04T06:29:06.995Z,933.5
2018-12-04T06:30:06.883Z,933.7
2018-12-04T06:31:07.185Z,933.6
2018-12-04T06:32:07.110Z,933.6
2018-12-04T06:33:06.993Z,933.7
2018-12-04T06:34:06.889Z,933.7
2018-12-04T06:35:06.777Z,933.7
2018-12-04T06:36:06.684Z,933.7
2018-12-04T06:37:06.564Z,933.6
2018-12-04T06:38:06.450Z,933.7
2018-12-04T06:39:06.342Z,933.6
2018-12-04T06:40:06.234Z,933.6
2018-12-04T06:41:06.527Z,933.6
2018-12-04T06:42:06.414Z,933.7
2018-12-04T06:43:06.335Z,933.7
2018-12-04T06:44:06.245Z,933.7
2018-12-04T06:45:06.134Z,933.7
2018-12-04T06:46:06.017Z,933.7
2018-12-04T06:47:05.898Z,933.8
2018-12-04T06:48:05.783Z,933.8
2018-12-04T06:49:05.673Z,933.8
2018-12-04T06:50:05.548Z,934
2018-12-04T06:51:05.923Z,933.5
2018-12-04T06:52:05.822Z,933.7
2018-12-04T06:53:05.720Z,933.7
2018-12-04T06:54:05.636Z,933.9
2018-12-04T06:55:05.528Z,933.7
2018-12-04T06:56:05.422Z,934
2018-12-04T06:57:05.382Z,934.1
2018-12-04T06:58:05.289Z,934.1
2018-12-04T06:59:05.213Z,934.1
2018-12-04T07:00:05.101Z,934.1
2018-12-04T07:01:05.483Z,934.1
2018-12-04T07:02:05.369Z,934.1
2018-12-04T07:03:05.250Z,934.2
2018-12-04T07:04:05.142Z,934.2
2018-12-04T07:05:05.040Z,934.3
2018-12-04T07:06:04.928Z,934.3
2018-12-04T07:07:04.821Z,934.3
2018-12-04T07:08:04.757Z,934.4
2018-12-04T07:09:04.713Z,934.5
2018-12-04T07:10:04.586Z,934.6
2018-12-04T07:11:04.925Z,934.4
2018-12-04T07:12:04.813Z,934.5
2018-12-04T07:13:04.702Z,934.6
2018-12-04T07:14:04.582Z,934.6
2018-12-04T07:15:04.486Z,934.7
2018-12-04T07:16:04.420Z,934.8
2018-12-04T07:17:04.335Z,934.7
2018-12-04T07:18:04.211Z,934.8
2018-12-04T07:19:04.101Z,934.8
2018-12-04T07:20:03.825Z,934.9
2018-12-04T07:21:04.137Z,934.9
2018-12-04T07:22:04.049Z,935
2018-12-04T07:23:03.937Z,934.9
2018-12-04T07:24:03.813Z,935
2018-12-04T07:25:03.703Z,935
2018-12-04T07:26:03.581Z,935
2018-12-04T07:27:03.508Z,935.2
2018-12-04T07:28:03.399Z,935.2
2018-12-04T07:29:03.291Z,935.4
2018-12-04T07:30:03.200Z,935.4
2018-12-04T07:31:03.520Z,935.4
2018-12-04T07:32:03.418Z,935.5
2018-12-04T07:33:03.316Z,935.6
2018-12-04T07:34:03.206Z,935.7
2018-12-04T07:35:03.114Z,935.7
2018-12-04T07:36:02.999Z,935.8
2018-12-04T07:37:02.894Z,935.9
2018-12-04T07:38:02.821Z,936
2018-12-04T07:39:02.715Z,935.9
2018-12-04T07:40:02.621Z,935.9
2018-12-04T07:41:02.955Z,935.9
2018-12-04T07:42:02.845Z,935.8
2018-12-04T07:43:02.738Z,935.8
2018-12-04T07:44:02.645Z,935.8
2018-12-04T07:45:02.540Z,935.8
2018-12-04T07:46:02.422Z,935.7
2018-12-04T07:47:02.299Z,935.5
2018-12-04T07:48:02.186Z,935.5
2018-12-04T07:49:02.103Z,935.5
2018-12-04T07:50:01.998Z,935.7
2018-12-04T07:51:02.293Z,935.5
2018-12-04T07:52:02.204Z,935.6
2018-12-04T07:53:02.100Z,935.6
2018-12-04T07:54:02.020Z,935.6
2018-12-04T07:55:01.927Z,935.7
2018-12-04T07:56:03.191Z,935.7
2018-12-04T07:57:03.091Z,935.7
2018-12-04T07:58:02.813Z,935.7
2018-12-04T07:59:02.547Z,935.6
2018-12-04T08:00:02.368Z,935.2
2018-12-04T08:01:02.746Z,935.5
2018-12-04T08:02:02.629Z,935.5
2018-12-04T08:03:02.529Z,935.5
2018-12-04T08:04:02.414Z,935.5
2018-12-04T08:05:02.345Z,935.6
2018-12-04T08:06:02.217Z,935.5
2018-12-04T08:07:02.115Z,935.6
2018-12-04T08:08:02.031Z,935.5
2018-12-04T08:09:01.919Z,935.7
2018-12-04T08:10:01.889Z,935.7
2018-12-04T08:11:02.275Z,935.6
2018-12-04T08:12:02.167Z,934.4
2018-12-04T08:13:02.081Z,935.8
2018-12-04T08:14:01.983Z,935.9
2018-12-04T08:15:01.941Z,935.9
2018-12-04T08:16:01.857Z,935.8
2018-12-04T08:17:01.588Z,934.5
2018-12-04T08:18:01.493Z,935.9
2018-12-04T08:19:01.237Z,935.9
2018-12-04T08:20:01.137Z,936
2018-12-04T08:21:01.478Z,936
2018-12-04T08:22:01.372Z,936
2018-12-04T08:23:01.269Z,935.9
2018-12-04T08:24:01.164Z,936
2018-12-04T08:25:01.071Z,936
2018-12-04T08:26:00.985Z,936
2018-12-04T08:27:00.863Z,936
2018-12-04T08:28:00.772Z,936.1
2018-12-04T08:29:00.651Z,936.1
2018-12-04T08:30:00.540Z,936
2018-12-04T08:31:00.849Z,936.1
2018-12-04T08:32:00.773Z,934.8
2018-12-04T08:33:00.663Z,936.1
2018-12-04T08:34:00.536Z,936.2
2018-12-04T08:35:00.431Z,936.2
2018-12-04T08:36:00.323Z,936.2
2018-12-04T08:37:00.230Z,936.3
2018-12-04T08:38:00.128Z,936.2
2018-12-04T08:39:00.034Z,936.2
2018-12-04T08:39:59.931Z,936.3
2018-12-04T08:41:00.254Z,936.3
2018-12-04T08:42:00.157Z,936.4
2018-12-04T08:43:00.054Z,936.5
2018-12-04T08:43:59.936Z,936.5
2018-12-04T08:44:59.851Z,936.5
2018-12-04T08:45:59.722Z,936.3
2018-12-04T08:46:59.617Z,936.4
2018-12-04T08:47:59.528Z,936.3
2018-12-04T08:49:00.690Z,936.5
2018-12-04T08:50:00.588Z,936.4
2018-12-04T08:51:00.898Z,935.6
2018-12-04T08:52:00.815Z,936.5
2018-12-04T08:53:00.713Z,936.5
2018-12-04T08:54:00.592Z,936.5
2018-12-04T08:55:00.483Z,936.7
2018-12-04T08:56:00.363Z,936.7
2018-12-04T08:57:00.243Z,936.7
2018-12-04T08:58:00.137Z,936.6
2018-12-04T08:59:00.037Z,936.1
2018-12-04T08:59:59.943Z,936.7
2018-12-04T09:01:01.737Z,936.7
2018-12-04T09:02:01.625Z,936.8
2018-12-04T09:03:01.515Z,936.7
2018-12-04T09:04:01.425Z,936.8
2018-12-04T09:05:01.315Z,936.9
2018-12-04T09:06:01.206Z,936.8
2018-12-04T09:07:01.192Z,936.6
2018-12-04T09:08:01.103Z,936.7
2018-12-04T09:09:00.987Z,936.8
2018-12-04T09:10:00.887Z,936.8
2018-12-04T09:11:01.207Z,936.9
2018-12-04T09:12:01.089Z,937
2018-12-04T09:13:00.955Z,937
2018-12-04T09:14:00.846Z,936.8
2018-12-04T09:15:00.737Z,937
2018-12-04T09:16:00.641Z,936.8
2018-12-04T09:17:00.540Z,936.8
2018-12-04T09:18:00.417Z,936.9
2018-12-04T09:19:00.474Z,936.9
2018-12-04T09:20:00.618Z,936.9
2018-12-04T09:21:01.394Z,936.8
2018-12-04T09:22:01.593Z,936.9
2018-12-04T09:23:01.829Z,936.8
2018-12-04T09:24:02.002Z,936.9
2018-12-04T09:25:02.202Z,936.9
2018-12-04T09:26:02.369Z,936.9
2018-12-04T09:27:06.890Z,936.9
2018-12-04T09:28:07.050Z,936.8
2018-12-04T09:29:07.251Z,936.8
2018-12-04T09:30:07.311Z,936.8
2018-12-04T09:31:07.674Z,936.8
2018-12-04T09:32:07.563Z,936.8
2018-12-04T09:33:07.443Z,936.8
2018-12-04T09:34:07.345Z,936.8
2018-12-04T09:35:07.235Z,935.3
2018-12-04T09:36:07.141Z,936.7
2018-12-04T09:37:07.111Z,936.7
2018-12-04T09:38:07.003Z,936.8
2018-12-04T09:39:06.923Z,936.8
2018-12-04T09:40:06.820Z,936.9
2018-12-04T09:41:07.120Z,936.8
2018-12-04T09:42:07.037Z,936.7
2018-12-04T09:43:06.908Z,936.7
2018-12-04T09:44:06.836Z,936.7
2018-12-04T09:45:06.770Z,936.7
2018-12-04T09:46:06.651Z,936.7
2018-12-04T09:47:06.521Z,936.8
2018-12-04T09:48:06.271Z,936.8
2018-12-04T09:49:06.179Z,936.8
2018-12-04T09:50:06.144Z,936.7
2018-12-04T09:51:06.455Z,936.8
2018-12-04T09:52:06.345Z,936.8
2018-12-04T09:53:06.257Z,936.9
2018-12-04T09:54:06.155Z,936.9
2018-12-04T09:55:06.041Z,936.9
2018-12-04T09:56:05.927Z,936.8
2018-12-04T09:57:05.809Z,936.9
2018-12-04T09:58:05.709Z,936.8
2018-12-04T09:59:05.929Z,936.8
2018-12-04T10:00:05.839Z,936.9
2018-12-04T10:01:06.141Z,937
2018-12-04T10:02:06.037Z,936.9
2018-12-04T10:03:05.953Z,936.9
2018-12-04T10:04:05.874Z,936.8
2018-12-04T10:05:05.753Z,936.8
2018-12-04T10:06:05.667Z,936.9
2018-12-04T10:07:05.546Z,936.9
2018-12-04T10:08:05.411Z,936.8
2018-12-04T10:09:05.291Z,937
2018-12-04T10:10:05.215Z,936.9
2018-12-04T10:11:05.517Z,936.8
2018-12-04T10:12:05.393Z,937
2018-12-04T10:13:05.287Z,937
2018-12-04T10:14:05.176Z,937
2018-12-04T10:15:05.085Z,937.1
2018-12-04T10:16:04.975Z,937.1
2018-12-04T10:17:04.883Z,937
2018-12-04T10:18:04.772Z,936.8
2018-12-04T10:19:04.655Z,936.8
2018-12-04T10:20:04.560Z,936.9
2018-12-04T10:21:04.901Z,937
2018-12-04T10:22:04.798Z,937
2018-12-04T10:23:04.683Z,937
2018-12-04T10:24:04.587Z,936.9
2018-12-04T10:25:04.471Z,937.1
2018-12-04T10:26:04.375Z,937.1
2018-12-04T10:27:04.233Z,937.1
2018-12-04T10:28:04.119Z,936.5
2018-12-04T10:29:03.993Z,937
2018-12-04T10:30:03.873Z,937
2018-12-04T10:31:04.190Z,937
2018-12-04T10:32:04.058Z,936.9
2018-12-04T10:33:03.951Z,936.4
2018-12-04T10:34:03.850Z,936.6
2018-12-04T10:35:03.752Z,937.1
2018-12-04T10:36:03.643Z,936.8
2018-12-04T10:37:03.538Z,936.8
2018-12-04T10:38:03.415Z,936.9
2018-12-04T10:39:03.300Z,937
2018-12-04T10:40:03.197Z,937
2018-12-04T10:41:03.497Z,937
2018-12-04T10:42:03.409Z,936.9
2018-12-04T10:43:03.291Z,936.8
2018-12-04T10:44:03.163Z,936.8
2018-12-04T10:45:03.064Z,936.9
2018-12-04T10:46:02.947Z,936.9
2018-12-04T10:47:02.853Z,936.9
2018-12-04T10:48:02.733Z,937
2018-12-04T10:49:02.605Z,936.9
2018-12-04T10:50:02.493Z,937.2
2018-12-04T10:51:02.777Z,937.5
2018-12-04T10:52:02.654Z,937.6
2018-12-04T10:53:02.549Z,937.5
2018-12-04T10:54:02.423Z,937.6
2018-12-04T10:55:02.383Z,937.8
2018-12-04T10:56:02.281Z,937.7
2018-12-04T10:57:02.190Z,937.8
2018-12-04T10:58:02.133Z,937.9
2018-12-04T10:59:02.045Z,937.8
2018-12-04T11:00:01.937Z,937.8
2018-12-04T11:01:02.281Z,937.7
2018-12-04T11:02:02.158Z,937.8
2018-12-04T11:03:02.051Z,937.8
2018-12-04T11:04:01.945Z,937.8
2018-12-04T11:05:01.843Z,937.8
2018-12-04T11:06:01.743Z,937.9
2018-12-04T11:07:01.611Z,937.8
2018-12-04T11:08:01.503Z,937.7
2018-12-04T11:09:01.391Z,937.9
2018-12-04T11:10:01.282Z,937.9
2018-12-04T11:11:01.589Z,937.9
2018-12-04T11:12:01.533Z,937.7
2018-12-04T11:13:01.417Z,937.9
2018-12-04T11:14:01.394Z,937.9
2018-12-04T11:15:01.289Z,938
2018-12-04T11:16:01.181Z,938
2018-12-04T11:17:01.085Z,938
2018-12-04T11:18:00.966Z,938
2018-12-04T11:19:00.855Z,937.8
2018-12-04T11:20:00.762Z,937.8
2018-12-04T11:21:01.108Z,937.9
2018-12-04T11:22:00.995Z,938
2018-12-04T11:23:00.882Z,937.9
2018-12-04T11:24:00.797Z,937.8
2018-12-04T11:25:01.882Z,937.9
2018-12-04T11:26:01.770Z,937.9
2018-12-04T11:27:01.497Z,937.9
2018-12-04T11:28:01.373Z,937.9
2018-12-04T11:29:01.143Z,938
2018-12-04T11:30:01.067Z,938
2018-12-04T11:31:01.211Z,938.1
2018-12-04T11:32:00.934Z,938
2018-12-04T11:33:00.656Z,937.1
2018-12-04T11:34:00.566Z,938.1
2018-12-04T11:35:00.495Z,938
2018-12-04T11:36:00.406Z,938
2018-12-04T11:37:00.283Z,938.2
2018-12-04T11:38:00.208Z,938.1
2018-12-04T11:38:59.934Z,938.1
2018-12-04T11:39:59.805Z,938.2
2018-12-04T11:41:00.136Z,938.2
2018-12-04T11:42:00.032Z,938.2
2018-12-04T11:42:59.931Z,938.3
2018-12-04T11:43:59.818Z,938.2
2018-12-04T11:44:59.710Z,938.3
2018-12-04T11:45:59.598Z,938.4
2018-12-04T11:46:59.500Z,938.3
2018-12-04T11:47:59.396Z,938.4
2018-12-04T11:48:59.278Z,938.4
2018-12-04T11:49:59.170Z,938.4
2018-12-04T11:51:01.140Z,938.5
2018-12-04T11:52:01.054Z,938.5
2018-12-04T11:53:00.959Z,938.5
2018-12-04T11:54:00.838Z,938.5
2018-12-04T11:55:00.733Z,938.5
2018-12-04T11:56:00.618Z,938.4
2018-12-04T11:57:00.526Z,938.4
2018-12-04T11:58:00.407Z,938.2
2018-12-04T11:59:00.304Z,938.3
2018-12-04T12:00:00.234Z,938.3
2018-12-04T12:01:00.548Z,938.4
2018-12-04T12:02:00.451Z,938.4
2018-12-04T12:03:00.344Z,938.3
2018-12-04T12:04:00.242Z,938.3
2018-12-04T12:05:00.118Z,938.5
2018-12-04T12:06:00.006Z,938.4
2018-12-04T12:06:59.893Z,938.5
2018-12-04T12:07:59.792Z,938.6
2018-12-04T12:08:59.723Z,938.6
2018-12-04T12:10:00.873Z,938.5
2018-12-04T12:11:01.257Z,938.5
2018-12-04T12:12:01.201Z,938.7
2018-12-04T12:13:01.090Z,938.6
2018-12-04T12:14:01.018Z,938.6
2018-12-04T12:15:00.744Z,938.6
2018-12-04T12:16:00.465Z,938.5
2018-12-04T12:17:00.371Z,938.7
2018-12-04T12:18:00.278Z,938.7
2018-12-04T12:19:00.245Z,938.7
2018-12-04T12:19:59.960Z,938.7
2018-12-04T12:21:00.272Z,938.7
2018-12-04T12:22:00.153Z,938.6
2018-12-04T12:23:00.048Z,938.7
2018-12-04T12:23:59.942Z,938.7
2018-12-04T12:24:59.829Z,938.7
2018-12-04T12:25:59.716Z,938.7
2018-12-04T12:26:59.602Z,938.6
2018-12-04T12:27:59.500Z,937.9
2018-12-04T12:28:59.377Z,938.7
2018-12-04T12:29:59.311Z,937.3
2018-12-04T12:30:59.611Z,938.6
2018-12-04T12:31:59.501Z,938.6
2018-12-04T12:32:59.387Z,938.7
2018-12-04T12:33:59.291Z,938.6
2018-12-04T12:34:59.207Z,938.6
2018-12-04T12:35:59.117Z,938.7
2018-12-04T12:36:59.007Z,938.6
2018-12-04T12:37:58.892Z,938.5
2018-12-04T12:38:58.772Z,938.6
2018-12-04T12:39:58.653Z,938.4
2018-12-04T12:40:58.992Z,938.7
2018-12-04T12:41:58.871Z,938.7
2018-12-04T12:42:58.763Z,938.5
2018-12-04T12:44:58.481Z,937.9
2018-12-04T12:45:58.373Z,938.7
2018-12-04T12:46:58.253Z,938.7
2018-12-04T12:47:58.147Z,938.8
2018-12-04T12:48:58.030Z,938.7
2018-12-04T12:49:57.927Z,938.7
2018-12-04T12:50:58.273Z,938.7
2018-12-04T12:51:58.159Z,938.7
2018-12-04T12:52:58.039Z,938.8
2018-12-04T12:53:57.950Z,938.7
2018-12-04T12:54:57.845Z,938.7
2018-12-04T12:55:57.732Z,938.6
2018-12-04T12:56:57.631Z,938.6
2018-12-04T12:57:57.519Z,938.7